Terminal Aerodrome Forecast
Issued by NWS

Home | Current Version | Previous Version | Text Only | Print | Product List | Glossary On
Versions: 1 2 3 4 5 6 7 8 9 10 11 12 13 14 15 16 17 18 19 20 21 22 23 24 25 26 27 28 29 30 31
000
FTUS43 KGRB 291728
TAFRHI
TAF
KRHI 291728Z 2918/3018 21010G17KT P6SM VCSH BKN025 BKN050
     FM291900 23010KT P6SM -SHRA BKN020 OVC050
      TEMPO 2921/3001 3SM RA OVC015
     FM300100 33005KT 4SM RA BR BKN010 OVC022
     FM300300 01007KT 4SM -RADZ BR OVC005
     FM300900 01010KT 6SM -DZ BR BKN009 OVC015
     FM301200 01010G16KT P6SM BKN015=

USA.gov is the U.S. government's official web portal to all federal, state and local government web resources and services.